Time;durP1;ratioP1;P1;durP2;ratioP2;P2;SDS_P1;SDS_P2;PMS_P1;PMS_P2;Temp;Humidity;BMP_temperature;BMP_pressure;BME280_temperature;BME280_humidity;BME280_pressure;Samples;Min_cycle;Max_cycle;Signal;HPM_P1;HPM_P2
2024/03/13 00:00:24;;;;;;;2.47;1.47;;;;;;;11.18;100.00;100911.56;2086094;28;20442;-66
2024/03/13 00:01:25;;;;;;;2.27;1.60;;;;;;;11.21;100.00;100909.94;2085476;28;20979;-66
2024/03/13 00:02:28;;;;;;;3.33;1.70;;;;;;;11.20;100.00;100914.72;2085710;28;20821;-67
2024/03/13 00:03:29;;;;;;;3.27;2.17;;;;;;;11.26;100.00;100906.66;2084573;28;21014;-66
2024/03/13 00:05:03;;;;;;;2.40;1.63;;;;;;;10.46;100.00;100806.59;2085501;28;20518;-66
2024/03/13 00:05:56;;;;;;;2.50;1.70;;;;;;;11.08;100.00;100911.81;2084841;28;21028;-66
2024/03/13 00:06:57;;;;;;;2.30;1.73;;;;;;;11.03;100.00;100917.88;2085289;28;20454;-66
2024/03/13 00:07:58;;;;;;;3.07;1.83;;;;;;;10.95;100.00;100917.25;2087962;28;20184;-66
2024/03/13 00:08:59;;;;;;;2.40;1.50;;;;;;;10.91;100.00;100924.06;2086016;28;20192;-66
2024/03/13 00:10:01;;;;;;;2.00;1.40;;;;;;;10.78;100.00;100915.63;2091183;28;20253;-66
2024/03/13 00:11:01;;;;;;;3.33;1.87;;;;;;;10.75;100.00;100924.78;2089435;28;20481;-66
2024/03/13 00:12:03;;;;;;;3.17;1.90;;;;;;;10.75;100.00;100922.00;2085775;28;20445;-66
2024/03/13 00:13:04;;;;;;;3.13;1.87;;;;;;;10.53;100.00;100889.59;2092011;28;20177;-66
2024/03/13 00:14:05;;;;;;;2.43;1.60;;;;;;;10.70;100.00;100921.69;2085344;28;20431;-66
2024/03/13 00:15:06;;;;;;;2.10;1.60;;;;;;;10.57;100.00;100921.56;2093877;28;20433;-66
2024/03/13 00:16:07;;;;;;;2.97;2.00;;;;;;;10.52;100.00;100922.06;2087094;28;20456;-66
2024/03/13 00:17:08;;;;;;;2.53;1.70;;;;;;;10.54;100.00;100922.41;2085835;28;20995;-66
2024/03/13 00:18:09;;;;;;;4.00;2.00;;;;;;;9.74;100.00;100813.88;2085658;28;20196;-66
2024/03/13 00:19:09;;;;;;;2.30;1.70;;;;;;;10.52;100.00;100933.16;2086089;28;20455;-66
2024/03/13 00:20:11;;;;;;;2.43;1.63;;;;;;;10.47;100.00;100927.31;2086011;28;20189;-66
2024/03/13 00:21:12;;;;;;;2.87;1.50;;;;;;;10.42;100.00;100920.28;2088322;28;20196;-66
2024/03/13 00:22:14;;;;;;;1.80;1.27;;;;;;;10.37;100.00;100926.31;2085778;28;20470;-66
2024/03/13 00:23:15;;;;;;;2.87;1.67;;;;;;;10.00;100.00;100862.06;2088468;28;20618;-66
2024/03/13 00:24:16;;;;;;;1.90;1.23;;;;;;;10.36;100.00;100927.47;2084968;28;20820;-66
2024/03/13 00:25:17;;;;;;;2.23;1.50;;;;;;;10.40;100.00;100924.69;2086115;28;20427;-66
2024/03/13 00:26:17;;;;;;;1.87;1.10;;;;;;;10.37;100.00;100919.97;2085370;28;20514;-66
2024/03/13 00:27:20;;;;;;;2.03;1.17;;;;;;;10.32;100.00;100937.06;2088272;28;20666;-66
2024/03/13 00:28:21;;;;;;;1.40;1.00;;;;;;;10.39;100.00;100923.09;2086142;28;21451;-66
2024/03/13 00:29:23;;;;;;;1.73;1.37;;;;;;;10.38;100.00;100922.31;2085705;28;20457;-66
2024/03/13 00:30:23;;;;;;;2.10;1.40;;;;;;;10.40;100.00;100919.91;2085561;28;20459;-66
2024/03/13 00:31:24;;;;;;;1.43;1.27;;;;;;;10.22;100.00;100885.41;2085383;28;20454;-66
2024/03/13 00:32:25;;;;;;;1.87;1.30;;;;;;;10.49;100.00;100917.38;2085478;28;20228;-66
2024/03/13 00:33:25;;;;;;;1.10;1.00;;;;;;;10.38;100.00;100910.44;2088166;28;20185;-66
2024/03/13 00:34:26;;;;;;;2.17;1.10;;;;;;;10.49;100.00;100919.34;2085800;28;20275;-66
2024/03/13 00:35:26;;;;;;;1.40;1.07;;;;;;;10.52;100.00;100918.50;2085877;28;20198;-66
2024/03/13 00:36:28;;;;;;;2.00;0.93;;;;;;;10.17;100.00;100853.47;2085835;28;20192;-67
2024/03/13 00:37:28;;;;;;;1.90;1.10;;;;;;;10.52;100.00;100915.72;2086283;28;20193;-66
2024/03/13 00:38:29;;;;;;;2.00;1.00;;;;;;;10.49;100.00;100911.81;2085978;28;20517;-66
2024/03/13 00:39:30;;;;;;;2.23;0.97;;;;;;;10.47;100.00;100917.00;2088610;28;20937;-66
2024/03/13 00:40:34;;;;;;;1.80;0.73;;;;;;;9.29;100.00;100734.44;2085524;28;20446;-66
2024/03/13 00:41:35;;;;;;;1.00;0.70;;;;;;;10.45;100.00;100916.63;2086017;28;20243;-67
2024/03/13 00:42:35;;;;;;;2.20;0.90;;;;;;;10.51;100.00;100917.72;2086178;28;20445;-66
2024/03/13 00:43:36;;;;;;;1.23;0.57;;;;;;;10.40;100.00;100900.50;2085351;28;20204;-66
2024/03/13 00:44:37;;;;;;;0.97;0.70;;;;;;;10.62;100.00;100918.31;2085535;28;20242;-66
2024/03/13 00:45:37;;;;;;;1.33;0.73;;;;;;;10.57;100.00;100918.00;2091085;28;20190;-66
2024/03/13 00:46:40;;;;;;;0.67;0.63;;;;;;;10.63;100.00;100921.84;2087550;28;20447;-67
2024/03/13 00:47:40;;;;;;;1.10;0.60;;;;;;;10.58;100.00;100909.28;2085198;28;20199;-67
2024/03/13 00:48:41;;;;;;;1.07;0.57;;;;;;;10.66;100.00;100923.78;2085542;28;20572;-67
2024/03/13 00:49:44;;;;;;;0.77;0.50;;;;;;;10.38;100.00;100874.44;2085817;28;20267;-67
2024/03/13 00:50:46;;;;;;;1.33;0.70;;;;;;;10.69;100.00;100914.59;2085164;28;20181;-67
2024/03/13 00:51:46;;;;;;;2.00;0.80;;;;;;;10.73;100.00;100916.13;2085824;28;20458;-67
2024/03/13 00:52:47;;;;;;;0.77;0.60;;;;;;;10.58;100.00;100900.97;2088588;28;21021;-67
2024/03/13 00:53:48;;;;;;;0.63;0.47;;;;;;;10.72;100.00;100922.84;2085113;28;20705;-67
2024/03/13 00:54:48;;;;;;;0.40;0.40;;;;;;;10.79;100.00;100917.16;2085100;28;20223;-67
2024/03/13 00:55:49;;;;;;;1.50;0.60;;;;;;;10.81;100.00;100919.53;2086145;28;20439;-67
2024/03/13 00:56:51;;;;;;;0.60;0.50;;;;;;;10.76;100.00;100909.69;2085540;28;20257;-67
2024/03/13 00:57:52;;;;;;;0.60;0.60;;;;;;;10.78;100.00;100915.63;2084834;28;20241;-67
2024/03/13 00:58:53;;;;;;;1.03;0.60;;;;;;;10.09;100.00;100802.19;2088346;28;20431;-67
2024/03/13 00:59:54;;;;;;;1.20;0.50;;;;;;;10.85;100.00;100911.91;2085725;28;20203;-67
2024/03/13 01:00:54;;;;;;;0.83;0.60;;;;;;;10.82;100.00;100916.31;2085592;28;20994;-67
2024/03/13 01:01:55;;;;;;;0.90;0.53;;;;;;;10.04;100.00;100788.06;2085754;28;20196;-67
2024/03/13 01:02:56;;;;;;;0.63;0.40;;;;;;;10.82;100.00;100901.69;2085936;28;20952;-67
2024/03/13 01:04:00;;;;;;;0.83;0.60;;;;;;;10.77;100.00;100911.25;2084662;28;20264;-67
2024/03/13 01:05:00;;;;;;;0.53;0.50;;;;;;;10.77;100.00;100911.25;2088603;28;20180;-67
2024/03/13 01:06:00;;;;;;;0.70;0.50;;;;;;;10.74;100.00;100912.13;2085659;28;20453;-67
2024/03/13 01:07:01;;;;;;;0.90;0.60;;;;;;;10.73;100.00;100915.31;2085888;28;21465;-67
2024/03/13 01:08:02;;;;;;;0.80;0.60;;;;;;;10.69;100.00;100909.84;2088604;28;20273;-67
2024/03/13 01:09:03;;;;;;;1.00;0.63;;;;;;;10.71;100.00;100910.19;2088391;28;20435;-67
2024/03/13 01:10:05;;;;;;;0.60;0.50;;;;;;;10.75;100.00;100913.69;2089320;28;20288;-67
2024/03/13 01:11:06;;;;;;;0.50;0.40;;;;;;;10.73;100.00;100905.03;2095223;28;20429;-67
2024/03/13 01:12:07;;;;;;;0.77;0.57;;;;;;;10.72;100.00;100905.44;2086321;28;21022;-67
2024/03/13 01:13:08;;;;;;;0.47;0.37;;;;;;;10.70;100.00;100916.94;2085937;28;20207;-67
2024/03/13 01:14:13;;;;;;;0.60;0.40;;;;;;;10.71;100.00;100909.44;2084452;28;20446;-67
2024/03/13 01:15:14;;;;;;;1.57;0.70;;;;;;;10.67;100.00;100905.94;2085618;28;20203;-67
2024/03/13 01:16:15;;;;;;;0.80;0.57;;;;;;;10.64;100.00;100915.09;2084518;28;21012;-67
2024/03/13 01:17:17;;;;;;;1.37;0.60;;;;;;;10.61;100.00;100913.19;2085563;28;20813;-67
2024/03/13 01:18:19;;;;;;;0.73;0.50;;;;;;;10.48;100.00;100909.47;2088112;28;21137;-67
2024/03/13 01:19:21;;;;;;;0.80;0.60;;;;;;;10.43;100.00;100918.28;2085643;28;20967;-67
2024/03/13 01:20:21;;;;;;;2.70;0.40;;;;;;;10.45;100.00;100913.88;2087177;28;20482;-67
2024/03/13 01:21:22;;;;;;;0.67;0.57;;;;;;;10.03;100.00;100847.34;2088862;28;20478;-67
2024/03/13 01:22:22;;;;;;;0.90;0.60;;;;;;;9.64;100.00;100787.16;2085662;28;20280;-67
2024/03/13 01:23:23;;;;;;;0.90;0.57;;;;;;;10.48;100.00;100913.03;2092205;28;20270;-67
2024/03/13 01:24:23;;;;;;;1.10;0.63;;;;;;;10.42;100.00;100897.31;2087750;28;20188;-67
2024/03/13 01:25:24;;;;;;;0.50;0.50;;;;;;;10.15;100.00;100853.09;2085410;28;20559;-67
2024/03/13 01:26:25;;;;;;;0.97;0.50;;;;;;;10.51;100.00;100911.41;2085528;28;20204;-67
2024/03/13 01:27:28;;;;;;;1.37;0.50;;;;;;;10.49;100.00;100908.25;2084599;28;20223;-67
2024/03/13 01:28:29;;;;;;;0.37;0.37;;;;;;;10.58;100.00;100925.91;2084993;28;20201;-67
2024/03/13 01:29:29;;;;;;;0.87;0.57;;;;;;;10.63;100.00;100908.00;2085540;28;20465;-67
2024/03/13 01:30:30;;;;;;;1.20;0.70;;;;;;;10.48;100.00;100882.56;2088079;28;20218;-67
2024/03/13 01:31:31;;;;;;;0.77;0.50;;;;;;;10.63;100.00;100908.00;2085711;28;20199;-67
2024/03/13 01:32:32;;;;;;;0.50;0.50;;;;;;;10.67;100.00;100920.56;2085421;28;20232;-67
2024/03/13 01:33:34;;;;;;;0.73;0.60;;;;;;;10.67;100.00;100915.00;2085255;28;20266;-67
2024/03/13 01:34:34;;;;;;;0.53;0.47;;;;;;;10.25;100.00;100849.34;2088098;28;20452;-67
2024/03/13 01:35:35;;;;;;;1.70;0.73;;;;;;;10.67;100.00;100908.72;2085872;28;21027;-67
2024/03/13 01:37:56;;;;;;;1.27;0.80;;;;;;;10.68;100.00;100913.84;2085102;28;20223;-67
2024/03/13 01:38:56;;;;;;;0.73;0.63;;;;;;;10.69;100.00;100906.28;2088010;28;20418;-67
2024/03/13 01:39:57;;;;;;;0.67;0.57;;;;;;;10.66;100.00;100912.69;2084965;28;20201;-67
2024/03/13 01:55:49;;;;;;;0.90;0.70;;;;;;;10.45;100.00;100919.41;2087514;28;20550;-67
2024/03/13 01:56:59;;;;;;;1.27;0.87;;;;;;;10.46;100.00;100929.28;2085707;28;20454;-67
2024/03/13 01:59:19;;;;;;;1.77;0.80;;;;;;;10.50;100.00;100915.38;2084882;28;20831;-67
2024/03/13 02:02:59;;;;;;;1.07;0.80;;;;;;;10.53;100.00;100926.41;2084960;28;20480;-67
2024/03/13 02:04:00;;;;;;;1.40;0.83;;;;;;;10.54;100.00;100919.66;2084392;28;20549;-67
2024/03/13 02:05:00;;;;;;;1.53;0.97;;;;;;;10.35;100.00;100903.75;2085659;28;20191;-67
2024/03/13 02:06:03;;;;;;;1.60;0.90;;;;;;;10.51;100.00;100920.47;2086600;28;20517;-67
2024/03/13 02:07:04;;;;;;;0.93;0.83;;;;;;;10.52;100.00;100916.53;2092439;28;20193;-67
2024/03/13 02:08:06;;;;;;;1.10;0.80;;;;;;;10.55;100.00;100926.75;2087985;28;20431;-67
2024/03/13 02:09:06;;;;;;;1.53;1.10;;;;;;;10.60;100.00;100919.94;2085034;28;20200;-67
2024/03/13 02:10:07;;;;;;;1.40;1.00;;;;;;;10.46;100.00;100923.75;2085216;28;20451;-67
2024/03/13 02:11:08;;;;;;;0.93;0.70;;;;;;;10.45;100.00;100918.66;2088832;28;20216;-67
2024/03/13 02:12:10;;;;;;;1.47;0.83;;;;;;;10.51;100.00;100922.50;2084204;28;20200;-66
2024/03/13 02:13:16;;;;;;;1.23;0.90;;;;;;;10.44;100.00;100917.06;2085473;28;20196;-67
2024/03/13 02:14:16;;;;;;;1.33;0.90;;;;;;;10.44;100.00;100922.59;2084941;28;20716;-67
2024/03/13 02:15:17;;;;;;;1.07;0.90;;;;;;;9.91;100.00;100850.75;2088196;28;20470;-67
2024/03/13 02:16:18;;;;;;;1.20;0.90;;;;;;;10.34;100.00;100918.03;2084943;28;20196;-67
2024/03/13 02:17:18;;;;;;;1.63;1.23;;;;;;;10.38;100.00;100922.31;2085128;28;20203;-67
2024/03/13 02:18:24;;;;;;;0.90;0.77;;;;;;;10.42;100.00;100920.28;2085575;28;20188;-67
2024/03/13 02:19:26;;;;;;;1.50;1.00;;;;;;;10.44;100.00;100925.38;2084495;28;20828;-67
2024/03/13 02:20:28;;;;;;;1.50;1.00;;;;;;;10.47;100.00;100930.88;2084103;28;20430;-67
2024/03/13 02:21:29;;;;;;;2.07;1.33;;;;;;;10.48;100.00;100926.09;2086516;28;20454;-67
2024/03/13 02:22:31;;;;;;;1.70;1.17;;;;;;;10.45;100.00;100924.94;2086717;28;20946;-67
2024/03/13 02:23:32;;;;;;;1.53;0.90;;;;;;;10.38;100.00;100919.56;2084992;28;20195;-67
2024/03/13 02:24:33;;;;;;;1.03;0.90;;;;;;;10.37;100.00;100937.38;2086597;28;20974;-67
2024/03/13 02:25:33;;;;;;;1.90;0.90;;;;;;;10.18;100.00;100926.25;2084237;28;20200;-67
2024/03/13 02:26:35;;;;;;;1.77;0.73;;;;;;;10.17;100.00;100924.69;2085300;28;20959;-67
2024/03/13 02:27:36;;;;;;;1.43;0.93;;;;;;;10.08;100.00;100925.22;2085251;28;20767;-67
2024/03/13 02:28:37;;;;;;;2.27;0.90;;;;;;;10.11;100.00;100929.16;2087815;28;20439;-67
2024/03/13 02:29:41;;;;;;;1.20;0.73;;;;;;;10.05;100.00;100920.53;2084963;28;20497;-67
2024/03/13 02:30:42;;;;;;;1.90;1.03;;;;;;;9.90;100.00;100899.03;2084605;28;20948;-67
2024/03/13 02:31:42;;;;;;;2.40;1.17;;;;;;;9.21;100.00;100789.06;2087305;28;20450;-67
2024/03/13 02:32:43;;;;;;;1.80;1.20;;;;;;;10.11;100.00;100921.63;2085455;28;20495;-67
2024/03/13 02:33:43;;;;;;;1.03;0.80;;;;;;;10.11;100.00;100923.59;2084724;28;20717;-67
2024/03/13 02:34:46;;;;;;;1.80;1.20;;;;;;;9.88;100.00;100879.25;2089471;28;20189;-67
2024/03/13 02:35:46;;;;;;;2.77;1.20;;;;;;;10.14;100.00;100917.22;2086998;28;20188;-67
2024/03/13 02:36:47;;;;;;;3.10;1.00;;;;;;;10.20;100.00;100921.06;2086680;28;20992;-67
2024/03/13 02:37:47;;;;;;;1.60;1.30;;;;;;;10.10;100.00;100908.97;2085811;28;20213;-67
2024/03/13 02:38:49;;;;;;;1.97;1.30;;;;;;;10.23;100.00;100914.69;2086880;28;20192;-67
2024/03/13 02:39:49;;;;;;;2.10;1.60;;;;;;;10.28;100.00;100917.75;2086405;28;20233;-67
2024/03/13 02:40:50;;;;;;;2.20;1.60;;;;;;;10.29;100.00;100919.31;2089482;28;20430;-67
2024/03/13 02:41:51;;;;;;;2.63;1.40;;;;;;;9.98;100.00;100856.16;2086619;28;20299;-67
2024/03/13 02:42:53;;;;;;;2.13;1.30;;;;;;;10.13;100.00;100877.66;2086875;28;20191;-67
2024/03/13 02:43:57;;;;;;;2.10;1.50;;;;;;;10.41;100.00;100913.16;2085828;28;20559;-67
2024/03/13 02:44:57;;;;;;;2.10;1.60;;;;;;;10.23;100.00;100873.13;2086762;28;20449;-67
2024/03/13 02:45:58;;;;;;;2.67;1.70;;;;;;;10.42;100.00;100920.28;2091745;28;20459;-67
2024/03/13 02:46:58;;;;;;;2.07;1.60;;;;;;;10.46;100.00;100917.44;2087664;28;20188;-67
2024/03/13 02:47:59;;;;;;;3.07;2.10;;;;;;;10.38;100.00;100919.56;2088677;28;20188;-67
2024/03/13 02:49:00;;;;;;;3.87;1.80;;;;;;;10.40;100.00;100917.13;2087100;28;20199;-67
2024/03/13 02:50:01;;;;;;;1.90;1.67;;;;;;;10.44;100.00;100920.63;2086225;28;20267;-67
2024/03/13 02:51:02;;;;;;;2.00;1.50;;;;;;;10.46;100.00;100920.19;2086799;28;20191;-67
2024/03/13 02:52:04;;;;;;;2.50;1.90;;;;;;;10.44;100.00;100920.63;2086488;28;20518;-67
2024/03/13 02:53:07;;;;;;;2.57;1.90;;;;;;;10.46;100.00;100923.75;2086863;28;20185;-67
2024/03/13 02:54:08;;;;;;;3.50;2.00;;;;;;;10.46;100.00;100915.44;2088426;28;20431;-67
2024/03/13 02:55:12;;;;;;;3.30;2.10;;;;;;;10.28;100.00;100906.69;2087216;28;21017;-67
2024/03/13 02:56:13;;;;;;;2.77;2.13;;;;;;;10.41;100.00;100920.69;2086534;28;20208;-67
2024/03/13 02:57:14;;;;;;;3.17;2.33;;;;;;;10.44;100.00;100914.28;2086805;28;20503;-67
2024/03/13 02:58:15;;;;;;;3.57;2.30;;;;;;;10.45;100.00;100922.19;2086196;28;20878;-67
2024/03/13 02:59:17;;;;;;;4.07;2.57;;;;;;;10.41;100.00;100917.91;2086367;28;20449;-67
2024/03/13 03:00:19;;;;;;;2.97;2.23;;;;;;;10.27;100.00;100896.00;2088341;28;20188;-67
2024/03/13 03:01:19;;;;;;;3.27;2.37;;;;;;;10.41;100.00;100915.91;2087709;28;20489;-67
2024/03/13 03:02:20;;;;;;;2.90;2.20;;;;;;;10.41;100.00;100913.16;2086741;28;20478;-67
2024/03/13 03:03:21;;;;;;;3.13;2.00;;;;;;;10.41;100.00;100918.69;2086255;28;20580;-67
2024/03/13 03:04:21;;;;;;;4.70;1.77;;;;;;;10.34;100.00;100916.06;2086133;28;20207;-67
2024/03/13 03:05:22;;;;;;;3.57;2.30;;;;;;;10.37;100.00;100909.69;2085673;28;20419;-67
2024/03/13 03:06:23;;;;;;;2.60;2.00;;;;;;;10.37;100.00;100914.44;2087658;28;20192;-67
2024/03/13 03:07:23;;;;;;;3.57;2.13;;;;;;;10.35;100.00;100916.84;2088354;28;20441;-67
2024/03/13 03:08:24;;;;;;;3.90;2.37;;;;;;;10.37;100.00;100922.75;2092618;28;20203;-67
2024/03/13 03:09:25;;;;;;;4.03;2.33;;;;;;;10.33;100.00;100922.81;2089809;28;20737;-67
2024/03/13 03:10:25;;;;;;;2.90;2.50;;;;;;;10.25;100.00;100910.28;2091523;28;20192;-67
2024/03/13 03:11:26;;;;;;;2.53;2.00;;;;;;;10.33;100.00;100917.28;2086386;28;20184;-67
2024/03/13 03:12:28;;;;;;;3.40;2.53;;;;;;;10.33;100.00;100920.03;2087133;28;20649;-67
2024/03/13 03:13:31;;;;;;;3.77;2.73;;;;;;;10.30;100.00;100929.19;2088120;28;20438;-67
2024/03/13 03:14:32;;;;;;;3.07;2.30;;;;;;;10.30;100.00;100920.88;2085453;28;20858;-67
2024/03/13 03:15:34;;;;;;;3.20;2.57;;;;;;;10.30;100.00;100925.66;2086030;28;20450;-67
2024/03/13 03:16:35;;;;;;;3.17;2.43;;;;;;;10.29;100.00;100924.84;2085984;28;20247;-67
2024/03/13 03:17:36;;;;;;;5.00;2.27;;;;;;;10.18;100.00;100912.38;2086195;28;20427;-67
2024/03/13 03:18:36;;;;;;;3.00;2.13;;;;;;;10.26;100.00;100920.16;2085973;28;20180;-67
2024/03/13 03:19:38;;;;;;;2.87;2.13;;;;;;;10.24;100.00;100924.56;2089118;28;20198;-67
2024/03/13 03:20:42;;;;;;;3.10;2.20;;;;;;;10.16;100.00;100912.03;2085865;28;20195;-67
2024/03/13 03:21:43;;;;;;;3.50;2.40;;;;;;;10.18;100.00;100926.25;2086071;28;20510;-67
2024/03/13 03:22:44;;;;;;;3.37;2.33;;;;;;;10.21;100.00;100920.66;2086343;28;20906;-67
2024/03/13 03:23:44;;;;;;;4.10;2.33;;;;;;;10.20;100.00;100921.06;2085608;28;20458;-67
2024/03/13 03:24:48;;;;;;;2.77;2.03;;;;;;;9.38;100.00;100801.84;2086118;28;20534;-67
2024/03/13 03:25:50;;;;;;;3.43;2.40;;;;;;;10.14;100.00;100920.78;2087310;28;20192;-67
2024/03/13 03:26:50;;;;;;;3.27;2.03;;;;;;;10.14;100.00;100926.31;2089062;28;20410;-67
2024/03/13 03:27:51;;;;;;;3.20;2.30;;;;;;;10.15;100.00;100932.63;2086199;28;20448;-67
2024/03/13 03:28:51;;;;;;;3.07;2.20;;;;;;;10.14;100.00;100929.06;2086665;28;20173;-67
2024/03/13 03:29:52;;;;;;;3.57;2.33;;;;;;;10.13;100.00;100933.06;2086343;28;20196;-67
2024/03/13 03:30:56;;;;;;;3.13;2.20;;;;;;;10.11;100.00;100931.91;2086013;28;20185;-67
2024/03/13 03:31:57;;;;;;;3.57;2.20;;;;;;;10.12;100.00;100934.25;2086286;28;20611;-67
2024/03/13 03:33:00;;;;;;;3.00;2.23;;;;;;;9.50;100.00;100841.97;2097321;28;20473;-67
2024/03/13 03:34:02;;;;;;;4.87;2.40;;;;;;;10.05;100.00;100928.81;2085542;28;20302;-67
2024/03/13 03:35:04;;;;;;;3.27;2.37;;;;;;;9.03;100.00;100765.66;2086244;28;21040;-67
2024/03/13 03:36:08;;;;;;;5.17;2.30;;;;;;;9.99;100.00;100935.25;2086169;28;20447;-67
2024/03/13 03:37:08;;;;;;;3.27;2.00;;;;;;;9.45;100.00;100848.75;2086576;28;20503;-67
2024/03/13 03:38:09;;;;;;;3.73;2.57;;;;;;;9.97;100.00;100932.91;2086424;28;20431;-67
2024/03/13 03:39:15;;;;;;;3.40;2.40;;;;;;;9.94;100.00;100925.44;2087227;28;20283;-67
2024/03/13 03:40:16;;;;;;;3.23;2.33;;;;;;;9.91;100.00;100925.50;2088922;28;20176;-67
2024/03/13 03:41:16;;;;;;;2.87;2.37;;;;;;;9.90;100.00;100921.94;2085710;28;21009;-67
2024/03/13 03:42:17;;;;;;;4.13;2.37;;;;;;;9.88;100.00;100926.31;2085550;28;20203;-67
2024/03/13 03:43:18;;;;;;;3.10;1.97;;;;;;;9.84;100.00;100925.63;2087051;28;20229;-67
2024/03/13 03:44:18;;;;;;;3.00;2.10;;;;;;;9.86;100.00;100921.22;2091128;28;20223;-67
2024/03/13 03:45:19;;;;;;;5.60;2.23;;;;;;;9.85;100.00;100918.88;2086942;28;20188;-67
2024/03/13 03:46:19;;;;;;;3.20;2.17;;;;;;;9.81;100.00;100923.69;2089066;28;20265;-67
2024/03/13 03:47:20;;;;;;;2.87;1.80;;;;;;;9.67;100.00;100910.06;2085341;28;20210;-67
2024/03/13 03:48:21;;;;;;;3.23;2.00;;;;;;;9.74;100.00;100926.56;2085668;28;20282;-67
2024/03/13 03:49:22;;;;;;;2.70;1.63;;;;;;;9.79;100.00;100929.63;2085435;28;20187;-67
2024/03/13 03:50:23;;;;;;;2.43;1.90;;;;;;;9.77;100.00;100925.72;2089563;28;21211;-67
2024/03/13 03:51:24;;;;;;;3.37;2.10;;;;;;;9.76;100.00;100924.16;2085926;28;20442;-67
2024/03/13 03:52:25;;;;;;;2.50;1.70;;;;;;;9.72;100.00;100926.97;2088894;28;20198;-67
2024/03/13 03:53:27;;;;;;;2.57;1.97;;;;;;;9.33;100.00;100882.50;2085474;28;20454;-67
2024/03/13 03:54:27;;;;;;;2.50;2.00;;;;;;;9.67;100.00;100926.66;2085256;28;20687;-67
2024/03/13 03:55:28;;;;;;;3.50;2.07;;;;;;;9.63;100.00;100932.25;2086461;28;20813;-67
2024/03/13 03:56:28;;;;;;;2.80;1.87;;;;;;;8.88;100.00;100820.38;2086155;28;20208;-67
2024/03/13 03:57:29;;;;;;;2.73;1.67;;;;;;;9.59;100.00;100927.97;2086408;28;20183;-67
2024/03/13 03:58:31;;;;;;;2.77;2.10;;;;;;;9.58;100.00;100934.72;2088787;28;20590;-67
2024/03/13 03:59:32;;;;;;;3.87;2.37;;;;;;;9.54;100.00;100925.69;2086879;28;20202;-67
2024/03/13 04:00:35;;;;;;;2.37;1.87;;;;;;;9.57;100.00;100930.38;2085644;28;20952;-67
2024/03/13 04:01:36;;;;;;;2.33;1.97;;;;;;;9.60;100.00;100935.88;2085917;28;20216;-67
2024/03/13 04:02:37;;;;;;;2.43;1.97;;;;;;;9.60;100.00;100935.06;2086278;28;20447;-67
2024/03/13 04:03:37;;;;;;;2.60;1.73;;;;;;;9.46;100.00;100908.41;2085637;28;20440;-67
2024/03/13 04:04:38;;;;;;;2.30;1.80;;;;;;;9.60;100.00;100929.53;2085849;28;20430;-67
2024/03/13 04:05:40;;;;;;;2.47;1.90;;;;;;;9.62;100.00;100930.69;2087431;28;20262;-67
2024/03/13 04:06:45;;;;;;;2.67;1.73;;;;;;;8.62;100.00;100773.38;2086112;28;20207;-67
2024/03/13 04:07:48;;;;;;;4.60;2.07;;;;;;;9.61;100.00;100929.13;2088034;28;20851;-67
2024/03/13 04:08:50;;;;;;;3.00;2.10;;;;;;;9.62;100.00;100929.91;2085620;28;20838;-67
2024/03/13 04:09:51;;;;;;;2.93;2.10;;;;;;;9.62;100.00;100929.91;2090375;28;20486;-67
2024/03/13 04:10:51;;;;;;;2.37;1.73;;;;;;;9.58;100.00;100931.97;2085843;28;20445;-67
2024/03/13 04:11:55;;;;;;;2.90;2.10;;;;;;;9.56;100.00;100926.84;2089016;28;20309;-67
2024/03/13 04:12:55;;;;;;;2.50;2.10;;;;;;;9.54;100.00;100928.44;2087840;28;20204;-67
2024/03/13 04:13:56;;;;;;;2.40;1.80;;;;;;;9.54;100.00;100923.69;2084464;28;20477;-67
2024/03/13 04:14:56;;;;;;;2.70;1.80;;;;;;;9.46;100.00;100913.94;2085944;28;20258;-67
2024/03/13 04:15:57;;;;;;;3.17;2.07;;;;;;;9.52;100.00;100923.31;2086037;28;20200;-67
2024/03/13 04:16:57;;;;;;;4.17;2.20;;;;;;;9.39;100.00;100905.72;2085925;28;20211;-67
2024/03/13 04:17:58;;;;;;;8.33;2.20;;;;;;;9.50;100.00;100922.19;2087711;28;20187;-67
2024/03/13 04:18:58;;;;;;;2.57;2.13;;;;;;;9.30;100.00;100896.38;2087673;28;20199;-67
2024/03/13 04:20:00;;;;;;;3.17;2.20;;;;;;;9.46;100.00;100915.91;2085661;28;20579;-67
2024/03/13 04:21:01;;;;;;;3.43;1.90;;;;;;;9.47;100.00;100918.25;2085777;28;20198;-67
2024/03/13 04:22:01;;;;;;;2.33;1.80;;;;;;;9.46;100.00;100913.94;2085604;28;20924;-67
2024/03/13 04:23:02;;;;;;;2.50;1.73;;;;;;;9.10;100.00;100871.41;2085948;28;20180;-67
2024/03/13 04:24:02;;;;;;;3.03;2.10;;;;;;;9.36;100.00;100903.03;2086382;28;20762;-67
2024/03/13 04:25:04;;;;;;;2.60;1.70;;;;;;;9.45;100.00;100917.13;2087613;28;20184;-67
2024/03/13 04:26:07;;;;;;;2.50;1.87;;;;;;;9.42;100.00;100917.94;2085986;28;20591;-67
2024/03/13 04:27:08;;;;;;;2.40;1.80;;;;;;;9.28;100.00;100907.09;2085129;28;20573;-67
2024/03/13 04:28:08;;;;;;;2.30;1.87;;;;;;;9.33;100.00;100918.47;2085964;28;20447;-67
2024/03/13 04:29:10;;;;;;;2.70;1.90;;;;;;;9.31;100.00;100912.56;2085707;28;20672;-67
2024/03/13 04:30:14;;;;;;;2.43;1.63;;;;;;;9.28;100.00;100938.28;2085906;28;20211;-67
2024/03/13 04:31:14;;;;;;;1.47;1.30;;;;;;;9.26;100.00;100913.03;2088033;28;20438;-67
2024/03/13 04:32:18;;;;;;;2.60;1.80;;;;;;;9.25;100.00;100916.22;2085551;28;20460;-67
2024/03/13 04:33:20;;;;;;;2.10;1.67;;;;;;;9.23;100.00;100913.09;2085012;28;20188;-67
2024/03/13 04:34:21;;;;;;;2.30;1.67;;;;;;;9.20;100.00;100911.94;2085611;28;20479;-67
2024/03/13 04:35:22;;;;;;;2.97;1.90;;;;;;;9.19;100.00;100917.88;2085987;28;20671;-67
2024/03/13 04:36:22;;;;;;;1.70;1.30;;;;;;;9.20;100.00;100911.16;2085613;28;20248;-67
2024/03/13 04:37:23;;;;;;;2.43;1.50;;;;;;;9.18;100.00;100911.56;2088754;28;20218;-67
2024/03/13 04:38:24;;;;;;;4.33;2.10;;;;;;;9.18;100.00;100913.56;2086192;28;20203;-67
2024/03/13 04:39:25;;;;;;;2.20;1.67;;;;;;;9.13;100.00;100912.03;2085239;28;20199;-67
2024/03/13 04:40:25;;;;;;;2.53;1.70;;;;;;;9.08;100.00;100908.94;2085923;28;20458;-67
2024/03/13 04:41:26;;;;;;;2.87;1.60;;;;;;;9.06;100.00;100911.34;2084587;28;20221;-67
2024/03/13 04:42:26;;;;;;;2.67;1.60;;;;;;;9.05;100.00;100912.53;2085574;28;20213;-67
2024/03/13 04:43:27;;;;;;;2.20;1.57;;;;;;;9.03;100.00;100912.19;2088166;28;20215;-67
2024/03/13 04:44:28;;;;;;;2.97;1.90;;;;;;;9.02;100.00;100908.63;2085001;28;20785;-67
2024/03/13 04:45:28;;;;;;;2.60;1.63;;;;;;;9.00;100.00;100901.94;2088065;28;20665;-67
2024/03/13 04:46:29;;;;;;;1.77;1.30;;;;;;;8.66;100.00;100852.22;2088725;28;20254;-67
2024/03/13 04:47:31;;;;;;;2.50;1.60;;;;;;;9.02;100.00;100903.09;2085739;28;20199;-67
2024/03/13 04:48:31;;;;;;;2.30;1.57;;;;;;;8.96;100.00;100893.69;2085386;28;20263;-67
2024/03/13 04:49:32;;;;;;;2.17;1.50;;;;;;;9.13;100.00;100912.03;2087704;28;20488;-66
2024/03/13 04:50:34;;;;;;;3.17;1.83;;;;;;;11.39;100.00;100869.50;2085233;28;20258;-61
2024/03/13 04:51:34;;;;;;;2.63;1.87;;;;;;;13.50;100.00;100931.31;2088782;28;20196;-61
2024/03/13 04:52:35;;;;;;;3.27;2.27;;;;;;;14.37;100.00;100927.66;2086919;28;20438;-61
2024/03/13 04:53:36;;;;;;;2.80;1.40;;;;;;;14.76;100.00;100915.91;2084536;28;20215;-62
2024/03/13 04:54:36;;;;;;;2.37;1.23;;;;;;;15.47;100.00;100923.22;2085152;28;20190;-61
2024/03/13 04:55:37;;;;;;;2.23;1.33;;;;;;;15.97;100.00;100931.94;2088344;28;20227;-61
2024/03/13 04:56:38;;;;;;;1.83;1.30;;;;;;;16.28;100.00;100920.66;2084880;28;20250;-61
2024/03/13 04:57:40;;;;;;;3.07;1.80;;;;;;;16.33;100.00;100915.22;2085518;28;20205;-62
2024/03/13 04:58:41;;;;;;;1.53;1.30;;;;;;;16.34;100.00;100913.97;2083886;28;20465;-61
2024/03/13 04:59:41;;;;;;;2.80;1.90;;;;;;;16.10;100.00;100870.31;2076637;28;20516;-66
2024/03/13 05:00:42;;;;;;;2.43;1.80;;;;;;;15.36;100.00;100839.09;2090212;28;20499;-66
2024/03/13 05:01:44;;;;;;;2.00;1.53;;;;;;;15.45;100.00;100918.09;2086979;28;20212;-66
2024/03/13 05:02:45;;;;;;;1.80;1.50;;;;;;;15.06;100.00;100920.78;2086176;28;20187;-67